createdAt,value
2023-01-15T00:04:54.000Z,9.27
2023-01-15T00:09:54.000Z,9.41
2023-01-15T00:14:54.000Z,9.50
2023-01-15T00:19:54.000Z,9.63
2023-01-15T00:24:54.000Z,9.74
2023-01-15T00:29:54.000Z,9.76
2023-01-15T00:34:54.000Z,9.77
2023-01-15T00:39:55.000Z,9.84
2023-01-15T00:44:54.000Z,9.91
2023-01-15T00:49:54.000Z,9.88
2023-01-15T00:54:54.000Z,9.92
2023-01-15T00:59:55.000Z,9.86
2023-01-15T01:04:54.000Z,9.81
2023-01-15T01:09:54.000Z,9.76
2023-01-15T01:14:54.000Z,9.66
2023-01-15T01:19:54.000Z,9.62
2023-01-15T01:24:54.000Z,9.57
2023-01-15T01:29:54.000Z,9.49
2023-01-15T01:34:54.000Z,9.46
2023-01-15T01:39:55.000Z,9.38
2023-01-15T01:44:54.000Z,9.36
2023-01-15T01:49:54.000Z,9.35
2023-01-15T01:54:54.000Z,9.33
2023-01-15T01:59:55.000Z,9.33
2023-01-15T02:04:54.000Z,9.37
2023-01-15T02:09:54.000Z,9.35
2023-01-15T02:14:54.000Z,9.31
2023-01-15T02:19:54.000Z,9.24
2023-01-15T02:24:55.000Z,9.21
2023-01-15T02:29:55.000Z,9.21
2023-01-15T02:34:55.000Z,9.20
2023-01-15T02:39:55.000Z,9.21
2023-01-15T02:44:54.000Z,9.21
2023-01-15T02:49:54.000Z,9.21
2023-01-15T02:54:54.000Z,9.21
2023-01-15T02:59:54.000Z,9.21
2023-01-15T03:04:55.000Z,9.21
2023-01-15T03:09:55.000Z,9.21
2023-01-15T03:14:55.000Z,9.21
2023-01-15T03:19:55.000Z,9.21
2023-01-15T03:24:55.000Z,9.21
2023-01-15T03:29:55.000Z,9.21
2023-01-15T03:34:54.000Z,9.21
2023-01-15T03:39:55.000Z,9.18
2023-01-15T03:44:55.000Z,9.15
2023-01-15T03:49:55.000Z,9.12
2023-01-15T03:54:55.000Z,9.12
2023-01-15T03:59:54.000Z,9.10
2023-01-15T04:04:55.000Z,9.06
2023-01-15T04:09:55.000Z,8.85
2023-01-15T04:14:55.000Z,8.78
2023-01-15T04:19:55.000Z,8.81
2023-01-15T04:24:55.000Z,8.82
2023-01-15T04:29:55.000Z,8.61
2023-01-15T04:34:55.000Z,8.57
2023-01-15T04:39:55.000Z,8.52
2023-01-15T04:44:55.000Z,8.50
2023-01-15T04:49:55.000Z,8.48
2023-01-15T04:54:55.000Z,8.48
2023-01-15T04:59:55.000Z,8.50
2023-01-15T05:04:55.000Z,8.49
2023-01-15T05:09:55.000Z,8.52
2023-01-15T05:14:55.000Z,8.50
2023-01-15T05:19:55.000Z,8.52
2023-01-15T05:24:55.000Z,8.58
2023-01-15T05:29:55.000Z,8.61
2023-01-15T05:34:55.000Z,8.62
2023-01-15T05:39:55.000Z,8.62
2023-01-15T05:44:55.000Z,8.72
2023-01-15T05:49:55.000Z,8.71
2023-01-15T05:54:55.000Z,8.74
2023-01-15T05:59:55.000Z,8.77
2023-01-15T06:04:55.000Z,8.72
2023-01-15T06:09:55.000Z,8.70
2023-01-15T06:14:55.000Z,8.74
2023-01-15T06:19:55.000Z,8.76
2023-01-15T06:24:55.000Z,8.78
2023-01-15T06:29:55.000Z,8.83
2023-01-15T06:34:55.000Z,8.83
2023-01-15T06:39:55.000Z,8.88
2023-01-15T06:44:55.000Z,9.04
2023-01-15T06:49:55.000Z,9.35
2023-01-15T06:54:55.000Z,9.42
2023-01-15T06:59:55.000Z,9.49
2023-01-15T07:04:55.000Z,9.52
2023-01-15T07:09:55.000Z,9.53
2023-01-15T07:14:55.000Z,9.56
2023-01-15T07:19:55.000Z,9.59
2023-01-15T07:25:11.000Z,9.63
2023-01-15T07:30:10.000Z,9.65
2023-01-15T07:34:55.000Z,9.62
2023-01-15T07:39:55.000Z,9.62
2023-01-15T07:44:55.000Z,9.63
2023-01-15T07:49:55.000Z,9.68
2023-01-15T07:54:55.000Z,9.68
2023-01-15T07:59:55.000Z,9.74
2023-01-15T08:04:55.000Z,9.76
2023-01-15T08:09:55.000Z,9.82
2023-01-15T08:14:55.000Z,9.86
2023-01-15T08:19:55.000Z,9.90
2023-01-15T08:24:55.000Z,9.86
2023-01-15T08:29:55.000Z,9.86
2023-01-15T08:34:55.000Z,9.84
2023-01-15T08:39:55.000Z,9.80
2023-01-15T08:44:55.000Z,9.66
2023-01-15T08:49:55.000Z,9.41
2023-01-15T08:54:55.000Z,9.20
2023-01-15T08:59:55.000Z,8.66
2023-01-15T09:04:55.000Z,8.57
2023-01-15T09:09:55.000Z,8.30
2023-01-15T09:14:55.000Z,7.69
2023-01-15T09:19:55.000Z,7.79
2023-01-15T09:24:55.000Z,7.65
2023-01-15T09:29:55.000Z,7.40
2023-01-15T09:34:55.000Z,7.27
2023-01-15T09:39:55.000Z,7.19
2023-01-15T09:44:55.000Z,7.15
2023-01-15T09:49:55.000Z,6.85
2023-01-15T09:54:55.000Z,6.95
2023-01-15T09:59:55.000Z,6.89
2023-01-15T10:04:55.000Z,7.24
2023-01-15T10:09:55.000Z,7.15
2023-01-15T10:14:55.000Z,7.15
2023-01-15T10:19:55.000Z,7.13
2023-01-15T10:24:55.000Z,6.80
2023-01-15T10:29:55.000Z,6.71
2023-01-15T10:34:55.000Z,6.46
2023-01-15T10:39:55.000Z,6.67
2023-01-15T10:44:55.000Z,6.35
2023-01-15T10:49:55.000Z,6.36
2023-01-15T10:54:55.000Z,6.37
2023-01-15T10:59:55.000Z,6.28
2023-01-15T11:04:55.000Z,6.24
2023-01-15T11:09:55.000Z,6.24
2023-01-15T11:14:55.000Z,6.24
2023-01-15T11:19:55.000Z,6.15
2023-01-15T11:24:55.000Z,5.98
2023-01-15T11:29:55.000Z,5.94
2023-01-15T11:34:55.000Z,5.90
2023-01-15T11:39:55.000Z,5.81
2023-01-15T11:44:55.000Z,5.76
2023-01-15T11:49:55.000Z,5.74
2023-01-15T11:54:55.000Z,5.75
2023-01-15T11:59:55.000Z,5.68
2023-01-15T12:04:55.000Z,5.65
2023-01-15T12:09:55.000Z,5.67
2023-01-15T12:14:55.000Z,5.63
2023-01-15T12:19:55.000Z,5.57
2023-01-15T12:24:55.000Z,5.71
2023-01-15T12:29:55.000Z,5.76
2023-01-15T12:34:55.000Z,5.68
2023-01-15T12:39:55.000Z,5.64
2023-01-15T12:44:55.000Z,5.58
2023-01-15T12:49:55.000Z,5.38
2023-01-15T12:54:55.000Z,5.25
2023-01-15T12:59:55.000Z,5.16
2023-01-15T13:04:55.000Z,5.08
2023-01-15T13:09:55.000Z,5.04
2023-01-15T13:14:55.000Z,5.03
2023-01-15T13:19:55.000Z,4.97
2023-01-15T13:24:55.000Z,4.97
2023-01-15T13:29:55.000Z,4.97
2023-01-15T13:34:55.000Z,4.97
2023-01-15T13:39:55.000Z,4.96
2023-01-15T13:44:55.000Z,5.00
2023-01-15T13:49:55.000Z,4.97
2023-01-15T13:54:55.000Z,4.97
2023-01-15T13:59:55.000Z,5.06
2023-01-15T14:04:55.000Z,5.08
2023-01-15T14:09:55.000Z,5.01
2023-01-15T14:14:55.000Z,5.02
2023-01-15T14:19:55.000Z,5.26
2023-01-15T14:24:55.000Z,5.22
2023-01-15T14:29:55.000Z,5.33
2023-01-15T14:34:55.000Z,5.33
2023-01-15T14:39:55.000Z,5.27
2023-01-15T14:44:55.000Z,5.11
2023-01-15T14:49:55.000Z,5.13
2023-01-15T14:54:55.000Z,5.09
2023-01-15T14:59:55.000Z,5.16
2023-01-15T15:04:55.000Z,5.26
2023-01-15T15:09:55.000Z,5.23
2023-01-15T15:14:55.000Z,5.17
2023-01-15T15:19:55.000Z,5.12
2023-01-15T15:24:55.000Z,5.09
2023-01-15T15:29:56.000Z,4.95
2023-01-15T15:34:55.000Z,5.18
2023-01-15T15:40:00.000Z,5.04
2023-01-15T15:45:00.000Z,5.13
2023-01-15T15:50:01.000Z,4.93
2023-01-15T15:55:00.000Z,4.97
2023-01-15T16:00:01.000Z,4.80
2023-01-15T16:05:01.000Z,4.76
2023-01-15T16:10:01.000Z,4.66
2023-01-15T16:15:01.000Z,4.73
2023-01-15T16:20:01.000Z,4.87
2023-01-15T16:25:01.000Z,4.86
2023-01-15T16:30:00.000Z,4.87
2023-01-15T16:35:01.000Z,4.77
2023-01-15T16:40:01.000Z,4.61
2023-01-15T16:45:00.000Z,4.60
2023-01-15T16:50:00.000Z,4.57
2023-01-15T16:55:01.000Z,4.62
2023-01-15T17:00:00.000Z,4.62
2023-01-15T17:05:00.000Z,4.65
2023-01-15T17:10:00.000Z,4.58
2023-01-15T17:15:00.000Z,4.51
2023-01-15T17:20:00.000Z,4.43
2023-01-15T17:25:00.000Z,4.38
2023-01-15T17:30:00.000Z,4.22
2023-01-15T17:35:00.000Z,4.12
2023-01-15T17:40:00.000Z,3.98
2023-01-15T17:45:00.000Z,3.98
2023-01-15T17:50:00.000Z,3.92
2023-01-15T17:55:00.000Z,3.85
2023-01-15T18:00:00.000Z,3.75
2023-01-15T18:05:00.000Z,3.64
2023-01-15T18:10:00.000Z,3.58
2023-01-15T18:15:00.000Z,3.56
2023-01-15T18:20:00.000Z,3.56
2023-01-15T18:25:00.000Z,3.47
2023-01-15T18:30:00.000Z,3.43
2023-01-15T18:35:00.000Z,3.45
2023-01-15T18:40:00.000Z,3.43
2023-01-15T18:45:00.000Z,3.46
2023-01-15T18:50:00.000Z,3.47
2023-01-15T18:55:00.000Z,3.41
2023-01-15T19:00:01.000Z,3.41
2023-01-15T19:05:00.000Z,3.39
2023-01-15T19:10:00.000Z,3.38
2023-01-15T19:15:00.000Z,3.38
2023-01-15T19:20:00.000Z,3.36
2023-01-15T19:25:00.000Z,3.36
2023-01-15T19:30:00.000Z,3.33
2023-01-15T19:35:01.000Z,3.32
2023-01-15T19:40:01.000Z,3.28
2023-01-15T19:45:00.000Z,3.26
2023-01-15T19:50:00.000Z,3.27
2023-01-15T19:55:00.000Z,3.31
2023-01-15T20:00:00.000Z,3.23
2023-01-15T20:05:00.000Z,3.17
2023-01-15T20:10:00.000Z,3.17
2023-01-15T20:15:01.000Z,3.17
2023-01-15T20:20:00.000Z,3.04
2023-01-15T20:25:01.000Z,3.02
2023-01-15T20:30:00.000Z,2.98
2023-01-15T20:35:00.000Z,2.87
2023-01-15T20:40:01.000Z,2.87
2023-01-15T20:45:00.000Z,2.81
2023-01-15T20:50:00.000Z,2.78
2023-01-15T20:55:00.000Z,2.78
2023-01-15T21:00:00.000Z,2.83
2023-01-15T21:05:00.000Z,2.79
2023-01-15T21:10:01.000Z,2.69
2023-01-15T21:15:01.000Z,2.60
2023-01-15T21:20:00.000Z,2.55
2023-01-15T21:25:00.000Z,2.54
2023-01-15T21:30:00.000Z,2.56
2023-01-15T21:35:00.000Z,2.57
2023-01-15T21:40:00.000Z,2.62
2023-01-15T21:45:00.000Z,2.65
2023-01-15T21:50:00.000Z,2.62
2023-01-15T21:55:00.000Z,2.60
2023-01-15T22:00:01.000Z,2.64
2023-01-15T22:05:01.000Z,2.59
2023-01-15T22:10:00.000Z,2.58
2023-01-15T22:15:01.000Z,2.62
2023-01-15T22:20:01.000Z,2.69
2023-01-15T22:25:01.000Z,2.72
2023-01-15T22:30:00.000Z,2.75
2023-01-15T22:35:01.000Z,2.79
2023-01-15T22:40:01.000Z,2.78
2023-01-15T22:45:01.000Z,2.73
2023-01-15T22:50:01.000Z,2.75
2023-01-15T22:55:01.000Z,2.68
2023-01-15T23:00:01.000Z,2.68
2023-01-15T23:05:01.000Z,2.65
2023-01-15T23:10:01.000Z,2.64
2023-01-15T23:15:01.000Z,2.67
2023-01-15T23:20:01.000Z,2.68
2023-01-15T23:25:01.000Z,2.68
2023-01-15T23:30:01.000Z,2.75
2023-01-15T23:35:01.000Z,2.84
2023-01-15T23:40:01.000Z,2.79
2023-01-15T23:45:01.000Z,2.72
2023-01-15T23:50:01.000Z,2.68
2023-01-15T23:55:01.000Z,2.69
